Terminal Aerodrome Forecast
Issued by NWS Wilmington, OH

Current Version | Previous Version | Graphics & Text | Print | Product List | Glossary On
Versions: 1 2 3 4 5 6 7 8 9 10 11 12 13 14 15 16 17 18 19 20 21 22 23
320
FTUS41 KILN 011731
TAFDAY
TAF
KDAY 011731Z 0118/0218 25012G22KT P6SM OVC035
     FM020000 25009KT P6SM OVC035
     FM021200 27012KT P6SM OVC025=

USA.gov is the U.S. government's official web portal to all federal, state and local government web resources and services.